sensor_id;sensor_type;location;lat;lon;timestamp;P1;durP1;ratioP1;P2;durP2;ratioP2
24335;SDS011;33098;52.400;16.880;2023-02-15T00:00:25;99.70;;;54.00;;
24335;SDS011;33098;52.400;16.880;2023-02-15T00:03:12;105.00;;;53.90;;
24335;SDS011;33098;52.400;16.880;2023-02-15T00:05:43;99.80;;;55.40;;
24335;SDS011;33098;52.400;16.880;2023-02-15T00:08:10;106.40;;;53.10;;
24335;SDS011;33098;52.400;16.880;2023-02-15T00:10:37;92.60;;;52.60;;
24335;SDS011;33098;52.400;16.880;2023-02-15T00:13:05;101.20;;;53.40;;
24335;SDS011;33098;52.400;16.880;2023-02-15T00:15:32;96.60;;;51.40;;
24335;SDS011;33098;52.400;16.880;2023-02-15T00:17:59;94.80;;;53.50;;
24335;SDS011;33098;52.400;16.880;2023-02-15T00:20:27;92.90;;;51.40;;
24335;SDS011;33098;52.400;16.880;2023-02-15T00:23:02;91.30;;;52.10;;
24335;SDS011;33098;52.400;16.880;2023-02-15T00:25:29;100.40;;;52.10;;
24335;SDS011;33098;52.400;16.880;2023-02-15T00:28:00;91.30;;;50.90;;
24335;SDS011;33098;52.400;16.880;2023-02-15T00:30:28;86.50;;;48.60;;
24335;SDS011;33098;52.400;16.880;2023-02-15T00:32:58;88.10;;;48.80;;
24335;SDS011;33098;52.400;16.880;2023-02-15T00:35:26;93.40;;;49.60;;
24335;SDS011;33098;52.400;16.880;2023-02-15T00:37:54;90.40;;;49.70;;
24335;SDS011;33098;52.400;16.880;2023-02-15T00:40:28;98.50;;;52.90;;
24335;SDS011;33098;52.400;16.880;2023-02-15T00:43:02;97.30;;;53.00;;
24335;SDS011;33098;52.400;16.880;2023-02-15T00:45:34;102.10;;;53.60;;
24335;SDS011;33098;52.400;16.880;2023-02-15T00:48:10;96.20;;;52.80;;
24335;SDS011;33098;52.400;16.880;2023-02-15T00:50:54;89.40;;;48.50;;
24335;SDS011;33098;52.400;16.880;2023-02-15T00:53:36;84.10;;;48.00;;
24335;SDS011;33098;52.400;16.880;2023-02-15T00:56:07;92.20;;;50.70;;
24335;SDS011;33098;52.400;16.880;2023-02-15T00:58:44;88.10;;;50.10;;
24335;SDS011;33098;52.400;16.880;2023-02-15T01:01:20;89.80;;;48.40;;
24335;SDS011;33098;52.400;16.880;2023-02-15T01:03:47;86.20;;;48.90;;
24335;SDS011;33098;52.400;16.880;2023-02-15T01:06:15;90.70;;;48.70;;
24335;SDS011;33098;52.400;16.880;2023-02-15T01:08:43;88.80;;;49.20;;
24335;SDS011;33098;52.400;16.880;2023-02-15T01:11:13;88.70;;;48.80;;
24335;SDS011;33098;52.400;16.880;2023-02-15T01:13:52;93.90;;;47.80;;
24335;SDS011;33098;52.400;16.880;2023-02-15T01:16:21;88.70;;;48.50;;
24335;SDS011;33098;52.400;16.880;2023-02-15T01:18:49;92.60;;;49.30;;
24335;SDS011;33098;52.400;16.880;2023-02-15T01:21:17;93.70;;;50.00;;
24335;SDS011;33098;52.400;16.880;2023-02-15T01:23:48;87.60;;;47.10;;
24335;SDS011;33098;52.400;16.880;2023-02-15T01:26:16;85.80;;;46.30;;
24335;SDS011;33098;52.400;16.880;2023-02-15T01:28:44;85.60;;;48.00;;
24335;SDS011;33098;52.400;16.880;2023-02-15T01:31:14;80.60;;;47.80;;
24335;SDS011;33098;52.400;16.880;2023-02-15T01:33:45;84.10;;;46.90;;
24335;SDS011;33098;52.400;16.880;2023-02-15T01:36:13;76.10;;;45.00;;
24335;SDS011;33098;52.400;16.880;2023-02-15T01:38:41;79.90;;;45.10;;
24335;SDS011;33098;52.400;16.880;2023-02-15T01:41:08;79.30;;;44.50;;
24335;SDS011;33098;52.400;16.880;2023-02-15T01:43:58;81.80;;;44.80;;
24335;SDS011;33098;52.400;16.880;2023-02-15T01:46:31;81.90;;;47.10;;
24335;SDS011;33098;52.400;16.880;2023-02-15T01:49:08;84.50;;;46.80;;
24335;SDS011;33098;52.400;16.880;2023-02-15T01:51:41;82.30;;;46.80;;
24335;SDS011;33098;52.400;16.880;2023-02-15T01:57:00;77.40;;;45.50;;
24335;SDS011;33098;52.400;16.880;2023-02-15T01:59:37;83.70;;;44.70;;
24335;SDS011;33098;52.400;16.880;2023-02-15T02:02:08;83.00;;;46.00;;
24335;SDS011;33098;52.400;16.880;2023-02-15T02:07:35;83.20;;;44.70;;
24335;SDS011;33098;52.400;16.880;2023-02-15T02:10:08;84.20;;;46.90;;
24335;SDS011;33098;52.400;16.880;2023-02-15T02:12:38;81.40;;;45.20;;
24335;SDS011;33098;52.400;16.880;2023-02-15T02:15:09;81.80;;;45.80;;
24335;SDS011;33098;52.400;16.880;2023-02-15T02:20:25;77.70;;;44.10;;
24335;SDS011;33098;52.400;16.880;2023-02-15T02:26:10;78.50;;;45.10;;
24335;SDS011;33098;52.400;16.880;2023-02-15T02:32:07;82.80;;;44.50;;
24335;SDS011;33098;52.400;16.880;2023-02-15T02:34:53;79.40;;;43.40;;
24335;SDS011;33098;52.400;16.880;2023-02-15T02:37:30;75.30;;;42.90;;
24335;SDS011;33098;52.400;16.880;2023-02-15T02:42:43;77.10;;;43.20;;
24335;SDS011;33098;52.400;16.880;2023-02-15T02:45:18;77.70;;;44.30;;
24335;SDS011;33098;52.400;16.880;2023-02-15T02:48:04;71.50;;;42.70;;
24335;SDS011;33098;52.400;16.880;2023-02-15T02:50:41;75.30;;;42.50;;
24335;SDS011;33098;52.400;16.880;2023-02-15T02:53:09;75.00;;;42.50;;
24335;SDS011;33098;52.400;16.880;2023-02-15T02:55:43;72.80;;;41.30;;
24335;SDS011;33098;52.400;16.880;2023-02-15T03:04:05;79.90;;;43.30;;
24335;SDS011;33098;52.400;16.880;2023-02-15T03:15:42;77.70;;;44.10;;
24335;SDS011;33098;52.400;16.880;2023-02-15T03:18:20;80.60;;;44.10;;
24335;SDS011;33098;52.400;16.880;2023-02-15T03:20:53;76.50;;;42.90;;
24335;SDS011;33098;52.400;16.880;2023-02-15T03:23:23;77.30;;;44.40;;
24335;SDS011;33098;52.400;16.880;2023-02-15T03:25:57;76.70;;;44.30;;
24335;SDS011;33098;52.400;16.880;2023-02-15T03:28:35;76.90;;;42.60;;
24335;SDS011;33098;52.400;16.880;2023-02-15T03:31:08;68.90;;;41.20;;
24335;SDS011;33098;52.400;16.880;2023-02-15T03:33:49;67.50;;;41.30;;
24335;SDS011;33098;52.400;16.880;2023-02-15T03:39:20;70.70;;;43.40;;
24335;SDS011;33098;52.400;16.880;2023-02-15T03:41:58;76.40;;;43.00;;
24335;SDS011;33098;52.400;16.880;2023-02-15T03:47:38;74.30;;;41.90;;
24335;SDS011;33098;52.400;16.880;2023-02-15T03:50:26;73.20;;;42.70;;
24335;SDS011;33098;52.400;16.880;2023-02-15T03:53:17;73.70;;;42.70;;
24335;SDS011;33098;52.400;16.880;2023-02-15T03:55:48;69.30;;;40.90;;
24335;SDS011;33098;52.400;16.880;2023-02-15T04:01:05;76.60;;;42.70;;
24335;SDS011;33098;52.400;16.880;2023-02-15T04:04:07;74.90;;;42.30;;
24335;SDS011;33098;52.400;16.880;2023-02-15T04:06:48;74.40;;;43.00;;
24335;SDS011;33098;52.400;16.880;2023-02-15T04:09:16;73.20;;;42.20;;
24335;SDS011;33098;52.400;16.880;2023-02-15T04:12:03;75.20;;;40.80;;
24335;SDS011;33098;52.400;16.880;2023-02-15T04:14:34;70.20;;;41.20;;
24335;SDS011;33098;52.400;16.880;2023-02-15T04:17:23;70.60;;;41.10;;
24335;SDS011;33098;52.400;16.880;2023-02-15T04:19:51;71.40;;;41.50;;
24335;SDS011;33098;52.400;16.880;2023-02-15T04:22:38;69.80;;;40.90;;
24335;SDS011;33098;52.400;16.880;2023-02-15T04:25:26;70.50;;;41.60;;
24335;SDS011;33098;52.400;16.880;2023-02-15T04:27:54;72.50;;;41.70;;
24335;SDS011;33098;52.400;16.880;2023-02-15T04:30:25;68.30;;;40.00;;
24335;SDS011;33098;52.400;16.880;2023-02-15T04:32:53;68.60;;;38.70;;
24335;SDS011;33098;52.400;16.880;2023-02-15T04:35:24;67.60;;;39.00;;
24335;SDS011;33098;52.400;16.880;2023-02-15T04:37:53;66.60;;;39.40;;
24335;SDS011;33098;52.400;16.880;2023-02-15T04:40:25;69.80;;;40.70;;
24335;SDS011;33098;52.400;16.880;2023-02-15T04:42:53;68.60;;;39.40;;
24335;SDS011;33098;52.400;16.880;2023-02-15T04:47:50;72.50;;;39.30;;
24335;SDS011;33098;52.400;16.880;2023-02-15T04:50:38;68.80;;;39.00;;
24335;SDS011;33098;52.400;16.880;2023-02-15T04:53:06;64.60;;;39.00;;
24335;SDS011;33098;52.400;16.880;2023-02-15T04:55:34;63.90;;;38.40;;
24335;SDS011;33098;52.400;16.880;2023-02-15T04:58:04;71.60;;;38.50;;
24335;SDS011;33098;52.400;16.880;2023-02-15T05:00:32;63.80;;;35.40;;
24335;SDS011;33098;52.400;16.880;2023-02-15T05:03:00;60.60;;;35.60;;
24335;SDS011;33098;52.400;16.880;2023-02-15T05:05:30;60.60;;;37.00;;
24335;SDS011;33098;52.400;16.880;2023-02-15T05:07:58;63.30;;;36.20;;
24335;SDS011;33098;52.400;16.880;2023-02-15T05:10:25;60.20;;;36.90;;
24335;SDS011;33098;52.400;16.880;2023-02-15T05:12:55;59.90;;;35.20;;
24335;SDS011;33098;52.400;16.880;2023-02-15T05:15:22;69.00;;;38.10;;
24335;SDS011;33098;52.400;16.880;2023-02-15T05:17:50;63.90;;;38.90;;
24335;SDS011;33098;52.400;16.880;2023-02-15T05:20:17;62.50;;;37.40;;
24335;SDS011;33098;52.400;16.880;2023-02-15T05:22:45;61.60;;;36.20;;
24335;SDS011;33098;52.400;16.880;2023-02-15T05:25:15;62.50;;;36.70;;
24335;SDS011;33098;52.400;16.880;2023-02-15T05:28:04;67.10;;;36.20;;
24335;SDS011;33098;52.400;16.880;2023-02-15T05:30:51;62.00;;;36.90;;
24335;SDS011;33098;52.400;16.880;2023-02-15T05:33:39;66.20;;;36.60;;
24335;SDS011;33098;52.400;16.880;2023-02-15T05:36:18;59.20;;;35.10;;
24335;SDS011;33098;52.400;16.880;2023-02-15T05:38:53;65.30;;;36.10;;
24335;SDS011;33098;52.400;16.880;2023-02-15T05:41:22;58.60;;;35.60;;
24335;SDS011;33098;52.400;16.880;2023-02-15T05:43:54;61.60;;;34.80;;
24335;SDS011;33098;52.400;16.880;2023-02-15T05:46:27;65.00;;;35.10;;
24335;SDS011;33098;52.400;16.880;2023-02-15T05:48:55;60.30;;;34.90;;
24335;SDS011;33098;52.400;16.880;2023-02-15T05:51:25;57.50;;;34.60;;
24335;SDS011;33098;52.400;16.880;2023-02-15T05:53:58;61.20;;;34.50;;
24335;SDS011;33098;52.400;16.880;2023-02-15T05:56:30;57.70;;;35.30;;
24335;SDS011;33098;52.400;16.880;2023-02-15T05:58:57;58.90;;;34.90;;
24335;SDS011;33098;52.400;16.880;2023-02-15T06:01:25;64.90;;;35.50;;
24335;SDS011;33098;52.400;16.880;2023-02-15T06:03:55;58.80;;;34.90;;
24335;SDS011;33098;52.400;16.880;2023-02-15T06:06:31;58.30;;;34.60;;
24335;SDS011;33098;52.400;16.880;2023-02-15T06:08:59;57.10;;;33.90;;
24335;SDS011;33098;52.400;16.880;2023-02-15T06:11:26;60.20;;;34.90;;
24335;SDS011;33098;52.400;16.880;2023-02-15T06:13:55;57.90;;;33.80;;
24335;SDS011;33098;52.400;16.880;2023-02-15T06:16:22;59.60;;;34.70;;
24335;SDS011;33098;52.400;16.880;2023-02-15T06:18:50;58.90;;;35.60;;
24335;SDS011;33098;52.400;16.880;2023-02-15T06:21:19;55.30;;;34.60;;
24335;SDS011;33098;52.400;16.880;2023-02-15T06:23:51;60.10;;;35.40;;
24335;SDS011;33098;52.400;16.880;2023-02-15T06:26:20;59.50;;;34.50;;
24335;SDS011;33098;52.400;16.880;2023-02-15T06:28:47;58.10;;;33.90;;
24335;SDS011;33098;52.400;16.880;2023-02-15T06:31:20;58.00;;;35.80;;
24335;SDS011;33098;52.400;16.880;2023-02-15T06:33:47;58.90;;;34.20;;
24335;SDS011;33098;52.400;16.880;2023-02-15T06:36:15;58.60;;;35.70;;
24335;SDS011;33098;52.400;16.880;2023-02-15T06:38:48;59.80;;;34.90;;
24335;SDS011;33098;52.400;16.880;2023-02-15T06:41:17;62.10;;;37.20;;
24335;SDS011;33098;52.400;16.880;2023-02-15T06:43:44;64.40;;;36.20;;
24335;SDS011;33098;52.400;16.880;2023-02-15T06:46:14;62.20;;;35.30;;
24335;SDS011;33098;52.400;16.880;2023-02-15T06:48:42;56.60;;;34.60;;
24335;SDS011;33098;52.400;16.880;2023-02-15T06:51:11;58.80;;;35.90;;
24335;SDS011;33098;52.400;16.880;2023-02-15T06:53:41;62.90;;;35.70;;
24335;SDS011;33098;52.400;16.880;2023-02-15T06:56:09;60.10;;;36.10;;
24335;SDS011;33098;52.400;16.880;2023-02-15T12:55:26;58.10;;;35.00;;
24335;SDS011;33098;52.400;16.880;2023-02-15T12:58:06;51.50;;;34.90;;
24335;SDS011;33098;52.400;16.880;2023-02-15T13:00:37;54.20;;;35.00;;
24335;SDS011;33098;52.400;16.880;2023-02-15T13:03:14;56.30;;;36.20;;
24335;SDS011;33098;52.400;16.880;2023-02-15T13:05:50;58.00;;;37.20;;
24335;SDS011;33098;52.400;16.880;2023-02-15T13:08:20;55.10;;;36.80;;
24335;SDS011;33098;52.400;16.880;2023-02-15T13:11:04;57.20;;;38.20;;
24335;SDS011;33098;52.400;16.880;2023-02-15T13:13:58;53.20;;;36.30;;
24335;SDS011;33098;52.400;16.880;2023-02-15T13:16:30;54.90;;;36.40;;
24335;SDS011;33098;52.400;16.880;2023-02-15T13:19:01;62.80;;;40.90;;
24335;SDS011;33098;52.400;16.880;2023-02-15T13:21:44;58.80;;;37.80;;
24335;SDS011;33098;52.400;16.880;2023-02-15T13:24:29;54.60;;;36.60;;
24335;SDS011;33098;52.400;16.880;2023-02-15T13:27:03;56.40;;;36.00;;
24335;SDS011;33098;52.400;16.880;2023-02-15T13:29:34;54.40;;;36.80;;
24335;SDS011;33098;52.400;16.880;2023-02-15T13:32:37;56.00;;;36.30;;
24335;SDS011;33098;52.400;16.880;2023-02-15T13:35:13;53.90;;;36.90;;
24335;SDS011;33098;52.400;16.880;2023-02-15T13:40:36;57.70;;;36.90;;
24335;SDS011;33098;52.400;16.880;2023-02-15T13:52:20;59.00;;;37.60;;
24335;SDS011;33098;52.400;16.880;2023-02-15T13:57:41;58.00;;;38.60;;
24335;SDS011;33098;52.400;16.880;2023-02-15T14:00:43;57.70;;;38.60;;
24335;SDS011;33098;52.400;16.880;2023-02-15T14:03:30;59.30;;;38.10;;
24335;SDS011;33098;52.400;16.880;2023-02-15T14:08:51;61.00;;;38.10;;
24335;SDS011;33098;52.400;16.880;2023-02-15T14:19:40;54.90;;;35.60;;
24335;SDS011;33098;52.400;16.880;2023-02-15T14:22:15;65.20;;;38.70;;
24335;SDS011;33098;52.400;16.880;2023-02-15T14:24:51;65.00;;;39.40;;
24335;SDS011;33098;52.400;16.880;2023-02-15T14:30:34;62.70;;;37.90;;
24335;SDS011;33098;52.400;16.880;2023-02-15T14:33:07;65.50;;;38.20;;
24335;SDS011;33098;52.400;16.880;2023-02-15T14:36:15;63.40;;;39.00;;
24335;SDS011;33098;52.400;16.880;2023-02-15T14:42:45;54.40;;;34.20;;
24335;SDS011;33098;52.400;16.880;2023-02-15T14:45:06;53.80;;;33.10;;
24335;SDS011;33098;52.400;16.880;2023-02-15T14:47:52;52.00;;;33.30;;
24335;SDS011;33098;52.400;16.880;2023-02-15T15:01:30;58.40;;;35.50;;
24335;SDS011;33098;52.400;16.880;2023-02-15T15:07:02;54.20;;;34.60;;
24335;SDS011;33098;52.400;16.880;2023-02-15T15:09:39;52.50;;;31.70;;
24335;SDS011;33098;52.400;16.880;2023-02-15T15:14:54;54.60;;;32.80;;
24335;SDS011;33098;52.400;16.880;2023-02-15T15:20:00;52.00;;;31.70;;
24335;SDS011;33098;52.400;16.880;2023-02-15T15:22:30;52.80;;;31.60;;
24335;SDS011;33098;52.400;16.880;2023-02-15T15:24:59;49.90;;;30.80;;
24335;SDS011;33098;52.400;16.880;2023-02-15T15:27:40;52.80;;;32.20;;
24335;SDS011;33098;52.400;16.880;2023-02-15T15:40:58;76.40;;;41.40;;
24335;SDS011;33098;52.400;16.880;2023-02-15T15:49:37;66.00;;;35.80;;
24335;SDS011;33098;52.400;16.880;2023-02-15T15:52:15;64.70;;;35.80;;
24335;SDS011;33098;52.400;16.880;2023-02-15T15:54:50;62.40;;;35.70;;
24335;SDS011;33098;52.400;16.880;2023-02-15T15:57:32;60.00;;;34.70;;
24335;SDS011;33098;52.400;16.880;2023-02-15T16:03:26;59.60;;;34.10;;
24335;SDS011;33098;52.400;16.880;2023-02-15T16:05:56;59.90;;;33.60;;
24335;SDS011;33098;52.400;16.880;2023-02-15T16:08:31;59.90;;;35.10;;
24335;SDS011;33098;52.400;16.880;2023-02-15T16:11:00;59.70;;;35.50;;
24335;SDS011;33098;52.400;16.880;2023-02-15T16:13:42;59.70;;;34.70;;
24335;SDS011;33098;52.400;16.880;2023-02-15T16:16:19;62.50;;;34.80;;
24335;SDS011;33098;52.400;16.880;2023-02-15T16:18:56;62.40;;;35.20;;
24335;SDS011;33098;52.400;16.880;2023-02-15T16:21:32;58.00;;;35.00;;
24335;SDS011;33098;52.400;16.880;2023-02-15T16:24:22;63.60;;;37.10;;
24335;SDS011;33098;52.400;16.880;2023-02-15T16:27:18;63.70;;;35.70;;
24335;SDS011;33098;52.400;16.880;2023-02-15T16:29:50;77.30;;;40.90;;
24335;SDS011;33098;52.400;16.880;2023-02-15T16:32:19;67.20;;;37.90;;
24335;SDS011;33098;52.400;16.880;2023-02-15T16:35:01;72.40;;;41.30;;
24335;SDS011;33098;52.400;16.880;2023-02-15T16:37:33;72.10;;;41.40;;
24335;SDS011;33098;52.400;16.880;2023-02-15T16:40:04;68.20;;;39.10;;
24335;SDS011;33098;52.400;16.880;2023-02-15T16:42:35;68.60;;;38.50;;
24335;SDS011;33098;52.400;16.880;2023-02-15T16:45:08;64.40;;;38.70;;
24335;SDS011;33098;52.400;16.880;2023-02-15T16:47:44;65.90;;;37.70;;
24335;SDS011;33098;52.400;16.880;2023-02-15T16:50:36;65.60;;;37.10;;
24335;SDS011;33098;52.400;16.880;2023-02-15T16:53:13;72.20;;;39.60;;
24335;SDS011;33098;52.400;16.880;2023-02-15T16:55:58;64.10;;;38.10;;
24335;SDS011;33098;52.400;16.880;2023-02-15T16:58:40;69.40;;;41.60;;
24335;SDS011;33098;52.400;16.880;2023-02-15T17:01:15;70.50;;;40.60;;
24335;SDS011;33098;52.400;16.880;2023-02-15T17:03:48;67.70;;;38.80;;
24335;SDS011;33098;52.400;16.880;2023-02-15T17:06:23;62.70;;;37.70;;
24335;SDS011;33098;52.400;16.880;2023-02-15T17:09:05;67.60;;;39.30;;
24335;SDS011;33098;52.400;16.880;2023-02-15T17:11:35;64.70;;;40.60;;
24335;SDS011;33098;52.400;16.880;2023-02-15T17:14:10;69.90;;;42.00;;
24335;SDS011;33098;52.400;16.880;2023-02-15T17:16:59;75.50;;;43.10;;
24335;SDS011;33098;52.400;16.880;2023-02-15T17:19:47;79.50;;;45.60;;
24335;SDS011;33098;52.400;16.880;2023-02-15T17:22:24;86.30;;;46.10;;
24335;SDS011;33098;52.400;16.880;2023-02-15T17:24:58;85.10;;;46.90;;
24335;SDS011;33098;52.400;16.880;2023-02-15T17:27:36;83.80;;;48.00;;
24335;SDS011;33098;52.400;16.880;2023-02-15T17:36:09;89.60;;;49.20;;
24335;SDS011;33098;52.400;16.880;2023-02-15T17:38:41;87.90;;;48.60;;
24335;SDS011;33098;52.400;16.880;2023-02-15T17:41:28;91.30;;;49.00;;
24335;SDS011;33098;52.400;16.880;2023-02-15T17:43:56;81.60;;;45.10;;
24335;SDS011;33098;52.400;16.880;2023-02-15T17:46:24;80.30;;;44.80;;
24335;SDS011;33098;52.400;16.880;2023-02-15T17:48:53;74.20;;;42.50;;
24335;SDS011;33098;52.400;16.880;2023-02-15T17:51:22;76.60;;;43.40;;
24335;SDS011;33098;52.400;16.880;2023-02-15T17:53:49;72.80;;;42.60;;
24335;SDS011;33098;52.400;16.880;2023-02-15T17:56:36;72.80;;;42.10;;
24335;SDS011;33098;52.400;16.880;2023-02-15T17:59:04;76.40;;;42.80;;
24335;SDS011;33098;52.400;16.880;2023-02-15T18:01:34;71.90;;;42.00;;
24335;SDS011;33098;52.400;16.880;2023-02-15T18:04:32;75.70;;;43.50;;
24335;SDS011;33098;52.400;16.880;2023-02-15T18:07:24;78.20;;;44.00;;
24335;SDS011;33098;52.400;16.880;2023-02-15T18:10:14;73.00;;;42.40;;
24335;SDS011;33098;52.400;16.880;2023-02-15T18:13:05;79.10;;;43.80;;
24335;SDS011;33098;52.400;16.880;2023-02-15T18:15:35;76.30;;;43.10;;
24335;SDS011;33098;52.400;16.880;2023-02-15T18:18:04;76.90;;;43.10;;
24335;SDS011;33098;52.400;16.880;2023-02-15T18:20:35;74.20;;;43.00;;
24335;SDS011;33098;52.400;16.880;2023-02-15T18:23:02;75.90;;;43.90;;
24335;SDS011;33098;52.400;16.880;2023-02-15T18:25:29;77.50;;;44.20;;
24335;SDS011;33098;52.400;16.880;2023-02-15T18:27:58;79.70;;;42.40;;
24335;SDS011;33098;52.400;16.880;2023-02-15T18:30:25;80.80;;;44.50;;
24335;SDS011;33098;52.400;16.880;2023-02-15T18:32:53;80.70;;;44.70;;
24335;SDS011;33098;52.400;16.880;2023-02-15T18:35:23;80.20;;;44.20;;
24335;SDS011;33098;52.400;16.880;2023-02-15T18:37:52;81.40;;;44.40;;
24335;SDS011;33098;52.400;16.880;2023-02-15T18:40:21;79.70;;;45.10;;
24335;SDS011;33098;52.400;16.880;2023-02-15T18:42:50;82.10;;;45.50;;
24335;SDS011;33098;52.400;16.880;2023-02-15T18:45:24;87.40;;;45.80;;
24335;SDS011;33098;52.400;16.880;2023-02-15T18:47:54;88.00;;;46.00;;
24335;SDS011;33098;52.400;16.880;2023-02-15T18:50:21;87.90;;;47.00;;
24335;SDS011;33098;52.400;16.880;2023-02-15T18:52:56;84.20;;;47.60;;
24335;SDS011;33098;52.400;16.880;2023-02-15T18:55:27;89.10;;;48.40;;
24335;SDS011;33098;52.400;16.880;2023-02-15T18:57:57;92.00;;;51.00;;
24335;SDS011;33098;52.400;16.880;2023-02-15T19:00:25;100.70;;;50.40;;
24335;SDS011;33098;52.400;16.880;2023-02-15T19:02:57;93.80;;;49.60;;
24335;SDS011;33098;52.400;16.880;2023-02-15T19:05:31;93.50;;;49.50;;
24335;SDS011;33098;52.400;16.880;2023-02-15T19:08:00;90.70;;;48.90;;
24335;SDS011;33098;52.400;16.880;2023-02-15T19:10:29;87.60;;;47.70;;
24335;SDS011;33098;52.400;16.880;2023-02-15T19:12:57;84.20;;;47.90;;
24335;SDS011;33098;52.400;16.880;2023-02-15T19:15:27;93.00;;;49.40;;
24335;SDS011;33098;52.400;16.880;2023-02-15T19:17:58;88.50;;;50.30;;
24335;SDS011;33098;52.400;16.880;2023-02-15T19:20:25;89.20;;;50.00;;
24335;SDS011;33098;52.400;16.880;2023-02-15T19:23:02;93.20;;;49.00;;
24335;SDS011;33098;52.400;16.880;2023-02-15T19:25:33;92.50;;;51.00;;
24335;SDS011;33098;52.400;16.880;2023-02-15T19:28:05;97.30;;;52.10;;
24335;SDS011;33098;52.400;16.880;2023-02-15T19:30:43;97.30;;;52.40;;
24335;SDS011;33098;52.400;16.880;2023-02-15T19:33:17;97.50;;;52.20;;
24335;SDS011;33098;52.400;16.880;2023-02-15T19:35:46;104.20;;;54.40;;
24335;SDS011;33098;52.400;16.880;2023-02-15T19:38:18;98.10;;;52.50;;
24335;SDS011;33098;52.400;16.880;2023-02-15T19:40:58;103.80;;;53.20;;
24335;SDS011;33098;52.400;16.880;2023-02-15T19:43:45;104.70;;;53.10;;
24335;SDS011;33098;52.400;16.880;2023-02-15T19:46:18;102.10;;;52.40;;
24335;SDS011;33098;52.400;16.880;2023-02-15T19:48:48;92.30;;;51.60;;
24335;SDS011;33098;52.400;16.880;2023-02-15T19:51:18;97.80;;;53.60;;
24335;SDS011;33098;52.400;16.880;2023-02-15T19:53:47;98.70;;;53.20;;
24335;SDS011;33098;52.400;16.880;2023-02-15T19:56:21;98.20;;;52.00;;
24335;SDS011;33098;52.400;16.880;2023-02-15T19:58:52;102.60;;;54.50;;
24335;SDS011;33098;52.400;16.880;2023-02-15T20:01:25;99.40;;;52.70;;
24335;SDS011;33098;52.400;16.880;2023-02-15T20:03:53;98.70;;;54.20;;
24335;SDS011;33098;52.400;16.880;2023-02-15T20:06:21;100.10;;;54.40;;
24335;SDS011;33098;52.400;16.880;2023-02-15T20:08:51;104.90;;;54.60;;
24335;SDS011;33098;52.400;16.880;2023-02-15T20:11:27;105.70;;;57.10;;
24335;SDS011;33098;52.400;16.880;2023-02-15T20:13:55;114.90;;;60.20;;
24335;SDS011;33098;52.400;16.880;2023-02-15T20:16:22;115.40;;;63.70;;
24335;SDS011;33098;52.400;16.880;2023-02-15T20:18:51;121.40;;;62.90;;
24335;SDS011;33098;52.400;16.880;2023-02-15T20:21:21;124.60;;;63.50;;
24335;SDS011;33098;52.400;16.880;2023-02-15T20:23:49;122.40;;;63.20;;
24335;SDS011;33098;52.400;16.880;2023-02-15T20:26:16;120.90;;;63.70;;
24335;SDS011;33098;52.400;16.880;2023-02-15T20:28:58;127.10;;;64.50;;
24335;SDS011;33098;52.400;16.880;2023-02-15T20:31:33;131.50;;;64.70;;
24335;SDS011;33098;52.400;16.880;2023-02-15T20:34:03;123.20;;;63.00;;
24335;SDS011;33098;52.400;16.880;2023-02-15T20:36:33;124.80;;;63.70;;
24335;SDS011;33098;52.400;16.880;2023-02-15T20:39:03;114.30;;;59.90;;
24335;SDS011;33098;52.400;16.880;2023-02-15T20:41:55;119.40;;;60.90;;
24335;SDS011;33098;52.400;16.880;2023-02-15T20:44:26;115.20;;;60.70;;
24335;SDS011;33098;52.400;16.880;2023-02-15T20:46:58;113.80;;;61.50;;
24335;SDS011;33098;52.400;16.880;2023-02-15T20:49:25;119.60;;;62.70;;
24335;SDS011;33098;52.400;16.880;2023-02-15T20:51:54;118.40;;;62.00;;
24335;SDS011;33098;52.400;16.880;2023-02-15T20:54:23;119.20;;;61.70;;
24335;SDS011;33098;52.400;16.880;2023-02-15T20:56:52;116.00;;;62.40;;
24335;SDS011;33098;52.400;16.880;2023-02-15T20:59:39;111.70;;;59.20;;
24335;SDS011;33098;52.400;16.880;2023-02-15T21:02:13;113.30;;;59.60;;
24335;SDS011;33098;52.400;16.880;2023-02-15T21:04:50;116.50;;;60.40;;
24335;SDS011;33098;52.400;16.880;2023-02-15T21:07:17;115.40;;;60.30;;
24335;SDS011;33098;52.400;16.880;2023-02-15T21:09:46;115.60;;;61.30;;
24335;SDS011;33098;52.400;16.880;2023-02-15T21:12:14;118.10;;;60.80;;
24335;SDS011;33098;52.400;16.880;2023-02-15T21:14:43;112.50;;;58.00;;
24335;SDS011;33098;52.400;16.880;2023-02-15T21:17:14;110.40;;;59.70;;
24335;SDS011;33098;52.400;16.880;2023-02-15T21:19:41;115.30;;;59.40;;
24335;SDS011;33098;52.400;16.880;2023-02-15T21:22:12;107.40;;;59.10;;
24335;SDS011;33098;52.400;16.880;2023-02-15T21:24:42;115.40;;;61.70;;
24335;SDS011;33098;52.400;16.880;2023-02-15T21:27:16;106.50;;;58.50;;
24335;SDS011;33098;52.400;16.880;2023-02-15T21:29:50;108.10;;;57.90;;
24335;SDS011;33098;52.400;16.880;2023-02-15T21:32:20;117.40;;;59.60;;
24335;SDS011;33098;52.400;16.880;2023-02-15T21:34:46;117.80;;;59.80;;
24335;SDS011;33098;52.400;16.880;2023-02-15T21:37:26;115.10;;;58.50;;
24335;SDS011;33098;52.400;16.880;2023-02-15T21:39:57;113.20;;;59.10;;
24335;SDS011;33098;52.400;16.880;2023-02-15T21:42:24;114.20;;;59.70;;
24335;SDS011;33098;52.400;16.880;2023-02-15T21:45:15;114.00;;;57.50;;
24335;SDS011;33098;52.400;16.880;2023-02-15T21:48:03;112.20;;;58.90;;
24335;SDS011;33098;52.400;16.880;2023-02-15T21:50:36;110.20;;;59.10;;
24335;SDS011;33098;52.400;16.880;2023-02-15T21:53:33;109.50;;;57.10;;
24335;SDS011;33098;52.400;16.880;2023-02-15T21:56:02;111.70;;;59.80;;
24335;SDS011;33098;52.400;16.880;2023-02-15T21:58:34;111.40;;;58.60;;
24335;SDS011;33098;52.400;16.880;2023-02-15T22:01:25;111.60;;;56.90;;
24335;SDS011;33098;52.400;16.880;2023-02-15T22:03:58;110.60;;;59.50;;
24335;SDS011;33098;52.400;16.880;2023-02-15T22:06:28;114.90;;;61.20;;
24335;SDS011;33098;52.400;16.880;2023-02-15T22:08:55;121.70;;;64.70;;
24335;SDS011;33098;52.400;16.880;2023-02-15T22:11:27;124.50;;;62.50;;
24335;SDS011;33098;52.400;16.880;2023-02-15T22:13:56;122.60;;;63.00;;
24335;SDS011;33098;52.400;16.880;2023-02-15T22:16:26;137.10;;;68.70;;
24335;SDS011;33098;52.400;16.880;2023-02-15T22:18:55;137.80;;;67.40;;
24335;SDS011;33098;52.400;16.880;2023-02-15T22:21:24;132.60;;;69.70;;
24335;SDS011;33098;52.400;16.880;2023-02-15T22:23:52;140.40;;;70.60;;
24335;SDS011;33098;52.400;16.880;2023-02-15T22:26:21;134.50;;;67.80;;
24335;SDS011;33098;52.400;16.880;2023-02-15T22:28:50;129.80;;;68.70;;
24335;SDS011;33098;52.400;16.880;2023-02-15T22:31:21;128.60;;;67.60;;
24335;SDS011;33098;52.400;16.880;2023-02-15T22:33:49;139.30;;;68.90;;
24335;SDS011;33098;52.400;16.880;2023-02-15T22:36:20;128.00;;;66.50;;
24335;SDS011;33098;52.400;16.880;2023-02-15T22:38:52;131.40;;;67.70;;
24335;SDS011;33098;52.400;16.880;2023-02-15T22:41:22;126.90;;;66.00;;